createdAt,value
2019-01-28T00:01:56.162Z,99.90
2019-01-28T00:04:26.569Z,99.90
2019-01-28T00:06:57.007Z,99.90
2019-01-28T00:09:27.449Z,99.90
2019-01-28T00:11:57.959Z,99.90
2019-01-28T00:14:28.568Z,99.90
2019-01-28T00:16:58.966Z,99.90
2019-01-28T00:19:29.430Z,99.90
2019-01-28T00:21:59.876Z,99.90
2019-01-28T00:24:30.270Z,99.90
2019-01-28T00:27:00.649Z,99.90
2019-01-28T00:29:31.074Z,99.90
2019-01-28T00:32:01.506Z,99.90
2019-01-28T00:34:31.925Z,99.90
2019-01-28T00:37:02.351Z,99.90
2019-01-28T00:39:32.744Z,99.90
2019-01-28T00:42:03.222Z,99.90
2019-01-28T00:44:33.641Z,99.90
2019-01-28T00:47:04.059Z,99.90
2019-01-28T00:49:34.481Z,99.90
2019-01-28T00:52:04.912Z,99.90
2019-01-28T00:54:35.298Z,99.90
2019-01-28T00:57:05.694Z,99.90
2019-01-28T00:59:36.152Z,99.90
2019-01-28T01:02:06.637Z,99.90
2019-01-28T01:04:37.060Z,99.90
2019-01-28T01:07:07.509Z,99.90
2019-01-28T01:09:37.923Z,99.90
2019-01-28T01:12:08.330Z,99.90
2019-01-28T01:14:38.754Z,99.90
2019-01-28T01:17:09.121Z,99.90
2019-01-28T01:19:39.529Z,99.90
2019-01-28T01:22:09.943Z,99.90
2019-01-28T01:24:40.327Z,99.90
2019-01-28T01:27:10.780Z,99.90
2019-01-28T01:29:41.201Z,99.90
2019-01-28T01:32:11.606Z,99.90
2019-01-28T01:34:42.026Z,99.90
2019-01-28T01:37:12.409Z,99.90
2019-01-28T01:39:42.819Z,99.90
2019-01-28T01:42:13.203Z,99.90
2019-01-28T01:44:43.632Z,99.90
2019-01-28T01:47:14.012Z,99.90
2019-01-28T01:49:44.491Z,99.90
2019-01-28T01:52:14.873Z,99.90
2019-01-28T01:54:45.287Z,99.90
2019-01-28T01:57:15.654Z,99.90
2019-01-28T01:59:46.064Z,99.90
2019-01-28T02:02:16.467Z,99.90
2019-01-28T02:04:46.867Z,99.90
2019-01-28T02:07:17.253Z,99.90
2019-01-28T02:09:47.703Z,99.90
2019-01-28T02:12:18.063Z,99.90
2019-01-28T02:14:48.495Z,99.90
2019-01-28T02:17:18.858Z,99.90
2019-01-28T02:19:49.230Z,99.90
2019-01-28T02:22:19.645Z,99.90
2019-01-28T02:24:50.037Z,99.90
2019-01-28T02:27:20.430Z,99.90
2019-01-28T02:29:50.873Z,99.90
2019-01-28T02:32:21.343Z,99.90
2019-01-28T02:34:51.898Z,99.90
2019-01-28T02:37:22.263Z,99.90
2019-01-28T02:39:52.696Z,99.90
2019-01-28T02:42:23.077Z,99.90
2019-01-28T02:44:53.499Z,99.90
2019-01-28T02:47:23.919Z,99.90
2019-01-28T02:49:54.337Z,99.90
2019-01-28T02:52:24.751Z,99.90
2019-01-28T02:54:55.418Z,99.90
2019-01-28T02:57:25.818Z,99.90
2019-01-28T02:59:56.255Z,99.90
2019-01-28T03:02:26.701Z,99.90
2019-01-28T03:04:57.099Z,99.90
2019-01-28T03:07:27.548Z,99.90
2019-01-28T03:09:57.946Z,99.90
2019-01-28T03:12:28.331Z,99.90
2019-01-28T03:14:58.761Z,99.90
2019-01-28T03:17:29.301Z,99.90
2019-01-28T03:19:59.752Z,99.90
2019-01-28T03:22:30.122Z,99.90
2019-01-28T03:25:00.516Z,99.90
2019-01-28T03:27:30.958Z,99.90
2019-01-28T03:30:01.314Z,99.90
2019-01-28T03:32:31.728Z,99.90
2019-01-28T03:35:02.167Z,99.90
2019-01-28T03:37:32.588Z,99.90
2019-01-28T03:40:03.019Z,99.90
2019-01-28T03:42:33.496Z,99.90
2019-01-28T03:45:03.963Z,99.90
2019-01-28T03:47:34.376Z,99.90
2019-01-28T03:50:05.506Z,99.90
2019-01-28T03:52:35.991Z,99.90
2019-01-28T03:55:07.225Z,99.90
2019-01-28T03:57:37.654Z,99.90
2019-01-28T04:00:12.381Z,99.90
2019-01-28T04:02:42.785Z,99.90
2019-01-28T04:05:13.345Z,99.90
2019-01-28T04:07:43.793Z,99.90
2019-01-28T04:10:17.927Z,99.90
2019-01-28T04:12:48.343Z,99.90
2019-01-28T04:15:20.819Z,99.90
2019-01-28T04:17:51.216Z,99.90
2019-01-28T04:20:22.679Z,99.90
2019-01-28T04:22:53.097Z,99.90
2019-01-28T04:25:23.976Z,99.90
2019-01-28T04:27:54.460Z,99.90
2019-01-28T04:30:26.159Z,99.90
2019-01-28T04:32:56.568Z,99.90
2019-01-28T04:35:27.024Z,99.90
2019-01-28T04:37:57.412Z,99.90
2019-01-28T04:40:27.816Z,99.90
2019-01-28T04:42:58.216Z,99.90
2019-01-28T04:45:28.629Z,99.90
2019-01-28T04:47:59.037Z,99.90
2019-01-28T04:50:29.536Z,99.90
2019-01-28T04:52:59.958Z,99.90
2019-01-28T04:55:30.436Z,99.90
2019-01-28T04:58:00.840Z,99.90
2019-01-28T05:00:31.233Z,99.90
2019-01-28T05:03:01.650Z,99.90
2019-01-28T05:05:32.095Z,99.90
2019-01-28T05:08:02.530Z,99.90
2019-01-28T05:10:32.948Z,99.90
2019-01-28T05:13:04.930Z,99.90
2019-01-28T05:15:35.467Z,99.90
2019-01-28T05:18:05.976Z,99.90
2019-01-28T05:20:36.414Z,99.90
2019-01-28T05:23:06.822Z,99.90
2019-01-28T05:25:37.332Z,99.90
2019-01-28T05:28:07.793Z,99.90
2019-01-28T05:30:38.194Z,99.90
2019-01-28T05:33:08.820Z,99.90
2019-01-28T05:35:39.270Z,99.90
2019-01-28T05:38:09.693Z,99.90
2019-01-28T05:40:40.077Z,99.90
2019-01-28T05:43:10.486Z,99.90
2019-01-28T05:45:40.933Z,99.90
2019-01-28T05:48:11.324Z,99.90
2019-01-28T05:50:41.892Z,99.90
2019-01-28T05:53:12.315Z,99.90
2019-01-28T05:55:42.756Z,99.90
2019-01-28T05:58:13.149Z,99.90
2019-01-28T06:00:45.721Z,99.90
2019-01-28T06:03:16.318Z,99.90
2019-01-28T06:05:46.717Z,99.90
2019-01-28T06:08:17.379Z,99.90
2019-01-28T06:10:47.804Z,99.90
2019-01-28T06:13:18.476Z,99.90
2019-01-28T06:15:48.876Z,99.90
2019-01-28T06:18:19.283Z,99.90
2019-01-28T06:20:49.690Z,99.90
2019-01-28T06:23:20.111Z,99.90
2019-01-28T06:25:52.034Z,99.90
2019-01-28T06:28:22.448Z,99.90
2019-01-28T06:30:52.852Z,99.90
2019-01-28T06:33:23.293Z,99.90
2019-01-28T06:35:55.205Z,99.90
2019-01-28T06:38:25.631Z,99.90
2019-01-28T06:40:56.080Z,99.90
2019-01-28T06:43:26.516Z,99.90
2019-01-28T06:45:56.912Z,99.90
2019-01-28T06:48:27.316Z,99.90
2019-01-28T06:50:57.715Z,99.90
2019-01-28T06:53:28.162Z,99.90
2019-01-28T06:55:58.583Z,99.90
2019-01-28T06:58:28.986Z,99.90
2019-01-28T07:00:59.405Z,99.90
2019-01-28T07:03:29.820Z,99.90
2019-01-28T07:06:00.203Z,99.90
2019-01-28T07:08:30.593Z,99.90
2019-01-28T07:11:01.020Z,99.90
2019-01-28T07:13:31.421Z,99.90
2019-01-28T07:16:02.373Z,99.90
2019-01-28T07:18:32.813Z,99.90
2019-01-28T07:21:03.240Z,99.90
2019-01-28T07:23:33.653Z,99.90
2019-01-28T07:26:04.045Z,99.90
2019-01-28T07:28:34.435Z,99.90
2019-01-28T07:31:04.874Z,99.90
2019-01-28T07:33:35.275Z,99.90
2019-01-28T07:36:05.831Z,99.90
2019-01-28T07:38:36.233Z,99.90
2019-01-28T07:41:06.645Z,99.90
2019-01-28T07:43:37.049Z,99.90
2019-01-28T07:46:07.580Z,99.90
2019-01-28T07:48:37.966Z,99.90
2019-01-28T07:51:08.385Z,99.90
2019-01-28T07:53:38.766Z,99.90
2019-01-28T07:56:09.206Z,99.90
2019-01-28T07:58:39.603Z,99.90
2019-01-28T08:01:10.022Z,99.90
2019-01-28T08:03:40.436Z,99.90
2019-01-28T08:06:11.053Z,99.90
2019-01-28T08:08:41.560Z,99.90
2019-01-28T08:11:11.929Z,99.90
2019-01-28T08:13:42.367Z,99.90
2019-01-28T08:16:12.779Z,99.90
2019-01-28T08:18:43.197Z,99.90
2019-01-28T08:21:13.647Z,99.90
2019-01-28T08:23:44.036Z,99.90
2019-01-28T08:26:14.436Z,99.90
2019-01-28T08:28:44.850Z,99.90
2019-01-28T08:31:15.470Z,99.90
2019-01-28T08:33:46.252Z,99.90
2019-01-28T08:36:16.701Z,99.90
2019-01-28T08:38:47.133Z,99.90
2019-01-28T08:41:17.507Z,99.90
2019-01-28T08:43:47.911Z,99.90
2019-01-28T08:46:18.337Z,99.90
2019-01-28T08:48:48.731Z,99.90
2019-01-28T08:51:19.453Z,99.90
2019-01-28T08:53:49.836Z,99.90
2019-01-28T08:56:20.252Z,99.90
2019-01-28T08:58:50.675Z,99.90
2019-01-28T09:01:21.083Z,99.90
2019-01-28T09:03:51.498Z,99.90
2019-01-28T09:06:21.923Z,99.90
2019-01-28T09:08:52.368Z,99.90
2019-01-28T09:11:22.812Z,99.90
2019-01-28T09:13:53.260Z,99.90
2019-01-28T09:16:24.117Z,99.90
2019-01-28T09:18:54.543Z,99.90
2019-01-28T09:21:24.955Z,99.90
2019-01-28T09:23:55.357Z,99.90
2019-01-28T09:26:25.755Z,99.90
2019-01-28T09:28:56.162Z,99.90
2019-01-28T09:31:26.720Z,99.90
2019-01-28T09:33:57.142Z,99.90
2019-01-28T09:36:27.574Z,99.90
2019-01-28T09:38:58.015Z,99.90
2019-01-28T09:41:28.427Z,99.90
2019-01-28T09:43:58.841Z,99.90
2019-01-28T09:46:29.353Z,99.90
2019-01-28T09:48:59.763Z,99.90
2019-01-28T09:51:30.184Z,99.90
2019-01-28T09:54:00.571Z,99.90
2019-01-28T09:56:30.974Z,99.90
2019-01-28T09:59:01.395Z,99.90
2019-01-28T10:01:31.738Z,99.90
2019-01-28T10:04:02.115Z,99.90
2019-01-28T10:06:32.465Z,99.90
2019-01-28T10:09:04.463Z,99.90
2019-01-28T10:11:34.847Z,99.90
2019-01-28T10:14:05.453Z,99.90
2019-01-28T10:16:35.811Z,99.90
2019-01-28T10:19:06.198Z,99.90
2019-01-28T10:21:36.635Z,99.90
2019-01-28T10:24:07.029Z,99.90
2019-01-28T10:26:37.412Z,99.90
2019-01-28T10:29:07.837Z,99.90
2019-01-28T10:31:38.192Z,99.90
2019-01-28T10:34:08.535Z,99.90
2019-01-28T10:36:38.925Z,99.90
2019-01-28T10:39:12.127Z,99.90
2019-01-28T10:41:42.489Z,99.90
2019-01-28T10:44:12.901Z,99.90
2019-01-28T10:46:43.429Z,99.90
2019-01-28T10:49:13.827Z,99.90
2019-01-28T10:51:44.276Z,99.90
2019-01-28T10:54:14.686Z,99.90
2019-01-28T10:56:45.098Z,99.90
2019-01-28T10:59:15.512Z,99.90
2019-01-28T11:01:45.941Z,99.90
2019-01-28T11:04:16.330Z,99.90
2019-01-28T11:06:46.741Z,99.90
2019-01-28T11:09:17.160Z,99.90
2019-01-28T11:11:47.572Z,99.90
2019-01-28T11:14:17.993Z,99.90
2019-01-28T11:16:48.414Z,99.90
2019-01-28T11:19:18.854Z,99.90
2019-01-28T11:21:49.291Z,99.90
2019-01-28T11:24:19.656Z,99.90
2019-01-28T11:26:50.163Z,99.90
2019-01-28T11:29:20.669Z,99.90
2019-01-28T11:31:51.056Z,99.90
2019-01-28T11:34:21.458Z,99.90
2019-01-28T11:36:51.865Z,99.90
2019-01-28T11:39:22.406Z,99.90
2019-01-28T11:41:52.782Z,99.90
2019-01-28T11:44:23.293Z,99.90
2019-01-28T11:46:53.692Z,99.90
2019-01-28T11:49:24.266Z,99.90
2019-01-28T11:51:54.586Z,99.90
2019-01-28T11:54:24.979Z,99.90
2019-01-28T11:56:55.413Z,99.00
2019-01-28T11:59:25.851Z,98.40
2019-01-28T12:01:56.264Z,98.00
2019-01-28T12:04:26.640Z,98.60
2019-01-28T12:06:57.039Z,98.90
2019-01-28T12:09:27.438Z,98.60
2019-01-28T12:11:57.890Z,98.30
2019-01-28T12:14:28.309Z,98.70
2019-01-28T12:16:58.730Z,98.20
2019-01-28T12:19:29.145Z,98.60
2019-01-28T12:21:59.562Z,99.00
2019-01-28T12:24:30.231Z,99.00
2019-01-28T12:27:00.647Z,99.20
2019-01-28T12:29:31.072Z,99.80
2019-01-28T12:32:01.516Z,99.90
2019-01-28T12:34:31.904Z,99.90
2019-01-28T12:37:02.307Z,99.90
2019-01-28T12:39:32.727Z,99.90
2019-01-28T12:42:03.151Z,99.90
2019-01-28T12:44:33.538Z,99.90
2019-01-28T12:47:03.947Z,99.90
2019-01-28T12:49:34.349Z,99.90
2019-01-28T12:52:04.804Z,99.90
2019-01-28T12:54:35.169Z,99.90
2019-01-28T12:57:05.577Z,99.90
2019-01-28T12:59:35.992Z,99.90
2019-01-28T13:02:06.504Z,99.90
2019-01-28T13:04:42.113Z,99.90
2019-01-28T13:07:08.995Z,99.90
2019-01-28T13:09:39.417Z,99.90
2019-01-28T13:12:09.843Z,99.90
2019-01-28T13:14:40.311Z,99.90
2019-01-28T13:17:10.731Z,99.90
2019-01-28T13:19:41.112Z,99.60
2019-01-28T13:22:11.602Z,99.70
2019-01-28T13:24:42.077Z,99.90
2019-01-28T13:27:12.491Z,99.90
2019-01-28T13:29:42.890Z,99.90
2019-01-28T13:32:13.428Z,99.90
2019-01-28T13:34:43.826Z,99.90
2019-01-28T13:37:14.225Z,99.90
2019-01-28T13:39:44.655Z,99.90
2019-01-28T13:42:15.082Z,99.90
2019-01-28T13:44:46.742Z,99.90
2019-01-28T13:47:17.196Z,99.90
2019-01-28T13:49:47.737Z,99.90
2019-01-28T13:52:18.267Z,99.90
2019-01-28T13:54:48.667Z,99.90
2019-01-28T13:57:19.070Z,99.90
2019-01-28T13:59:49.497Z,99.90
2019-01-28T14:02:19.909Z,99.90
2019-01-28T14:04:50.365Z,99.90
2019-01-28T14:07:20.797Z,99.90
2019-01-28T14:09:51.240Z,99.90
2019-01-28T14:12:21.657Z,99.90
2019-01-28T14:14:52.060Z,99.90
2019-01-28T14:17:22.513Z,99.90
2019-01-28T14:19:52.931Z,99.90
2019-01-28T14:22:23.361Z,99.90
2019-01-28T14:24:53.799Z,99.90
2019-01-28T14:27:24.233Z,99.90
2019-01-28T14:29:54.642Z,99.90
2019-01-28T14:32:25.088Z,99.90
2019-01-28T14:34:55.530Z,99.90
2019-01-28T14:37:25.943Z,99.90
2019-01-28T14:39:56.390Z,99.90
2019-01-28T14:42:26.758Z,99.90
2019-01-28T14:44:57.116Z,99.90
2019-01-28T14:47:27.441Z,99.90
2019-01-28T14:49:57.834Z,99.90
2019-01-28T14:52:28.200Z,99.90
2019-01-28T14:54:58.471Z,99.90
2019-01-28T14:57:28.878Z,99.90
2019-01-28T14:59:59.254Z,99.90
2019-01-28T15:02:29.605Z,99.90
2019-01-28T15:04:59.905Z,99.90
2019-01-28T15:07:30.299Z,99.90
2019-01-28T15:10:00.547Z,99.90
2019-01-28T15:12:30.921Z,99.90
2019-01-28T15:15:01.357Z,99.90
2019-01-28T15:17:31.768Z,99.90
2019-01-28T15:20:02.838Z,99.90
2019-01-28T15:22:33.239Z,99.90
2019-01-28T15:25:05.026Z,99.90
2019-01-28T15:27:35.414Z,99.90
2019-01-28T15:30:11.310Z,99.90
2019-01-28T15:32:41.887Z,99.90
2019-01-28T15:35:12.494Z,99.90
2019-01-28T15:37:42.896Z,99.90
2019-01-28T15:40:18.084Z,99.90
2019-01-28T15:42:48.358Z,99.90
2019-01-28T15:45:28.171Z,99.90
2019-01-28T15:47:58.577Z,99.90
2019-01-28T15:50:29.074Z,99.90
2019-01-28T15:52:59.474Z,99.90
2019-01-28T15:55:36.309Z,99.90
2019-01-28T15:58:07.963Z,99.90
2019-01-28T16:00:38.951Z,99.90
2019-01-28T16:03:09.645Z,99.90
2019-01-28T16:05:40.139Z,99.90
2019-01-28T16:08:10.708Z,99.90
2019-01-28T16:10:41.224Z,99.90
2019-01-28T16:13:11.665Z,99.90
2019-01-28T16:15:45.363Z,99.90
2019-01-28T16:18:15.791Z,99.90
2019-01-28T16:20:46.278Z,99.90
2019-01-28T16:23:16.727Z,99.90
2019-01-28T16:25:47.195Z,99.90
2019-01-28T16:28:17.700Z,99.90
2019-01-28T16:30:48.557Z,99.90
2019-01-28T16:33:19.038Z,99.90
2019-01-28T16:35:49.505Z,99.90
2019-01-28T16:38:19.975Z,99.90
2019-01-28T16:40:50.425Z,99.90
2019-01-28T16:43:20.862Z,99.90
2019-01-28T16:45:51.299Z,99.90
2019-01-28T16:48:21.729Z,99.90
2019-01-28T16:50:52.196Z,99.90
2019-01-28T16:53:22.609Z,99.90
2019-01-28T16:55:53.078Z,99.90
2019-01-28T16:58:23.538Z,99.90
2019-01-28T17:00:54.100Z,99.90
2019-01-28T17:03:24.596Z,99.90
2019-01-28T17:05:55.020Z,99.90
2019-01-28T17:08:25.456Z,99.90
2019-01-28T17:10:55.886Z,99.90
2019-01-28T17:13:26.413Z,99.90
2019-01-28T17:15:56.885Z,99.90
2019-01-28T17:18:27.423Z,99.90
2019-01-28T17:20:57.875Z,99.90
2019-01-28T17:23:28.314Z,99.90
2019-01-28T17:25:58.758Z,99.90
2019-01-28T17:28:29.214Z,99.90
2019-01-28T17:30:59.637Z,99.90
2019-01-28T17:33:30.133Z,99.90
2019-01-28T17:36:00.647Z,99.90
2019-01-28T17:38:31.118Z,99.90
2019-01-28T17:41:01.558Z,99.90
2019-01-28T17:43:32.028Z,99.90
2019-01-28T17:46:02.491Z,99.90
2019-01-28T17:48:32.907Z,99.90
2019-01-28T17:51:03.512Z,99.90
2019-01-28T17:53:33.976Z,99.90
2019-01-28T17:56:04.429Z,99.90
2019-01-28T17:58:34.923Z,99.90
2019-01-28T18:01:05.557Z,99.90
2019-01-28T18:03:36.017Z,99.90
2019-01-28T18:06:06.556Z,99.90
2019-01-28T18:08:36.990Z,99.90
2019-01-28T18:11:07.875Z,99.90
2019-01-28T18:13:38.306Z,99.90
2019-01-28T18:16:08.868Z,99.90
2019-01-28T18:18:39.345Z,99.90
2019-01-28T18:21:09.816Z,99.90
2019-01-28T18:23:47.067Z,99.90
2019-01-28T18:26:17.539Z,99.90
2019-01-28T18:28:47.947Z,99.90
2019-01-28T18:31:18.539Z,99.90
2019-01-28T18:33:49.001Z,99.90
2019-01-28T18:36:19.424Z,99.90
2019-01-28T18:38:49.987Z,99.70
2019-01-28T18:41:20.432Z,99.80
2019-01-28T18:43:50.958Z,99.90
2019-01-28T18:46:21.418Z,99.50
2019-01-28T18:48:51.892Z,99.50
2019-01-28T18:51:22.379Z,99.40
2019-01-28T18:53:52.870Z,99.50
2019-01-28T18:56:23.319Z,99.60
2019-01-28T18:58:53.748Z,99.10
2019-01-28T19:01:25.915Z,99.20
2019-01-28T19:03:56.506Z,99.30
2019-01-28T19:06:45.873Z,99.50
2019-01-28T19:09:50.366Z,99.90
2019-01-28T19:12:48.234Z,99.30
2019-01-28T19:15:46.420Z,99.30
2019-01-28T19:18:33.608Z,98.70
2019-01-28T19:21:08.386Z,98.00
2019-01-28T19:23:38.838Z,98.60
2019-01-28T19:26:09.249Z,98.30
2019-01-28T19:28:39.681Z,97.90
2019-01-28T19:31:10.164Z,97.00
2019-01-28T19:33:40.625Z,97.00
2019-01-28T19:36:13.199Z,96.70
2019-01-28T19:38:43.685Z,96.10
2019-01-28T19:41:14.178Z,96.40
2019-01-28T19:43:44.580Z,96.50
2019-01-28T19:46:14.983Z,96.00
2019-01-28T19:48:45.464Z,96.10
2019-01-28T19:51:16.146Z,95.50
2019-01-28T19:53:46.551Z,95.80
2019-01-28T19:56:17.001Z,95.70
2019-01-28T19:58:47.560Z,95.40
2019-01-28T20:01:18.025Z,96.10
2019-01-28T20:03:48.523Z,95.90
2019-01-28T20:06:19.007Z,95.70
2019-01-28T20:08:49.529Z,96.20
2019-01-28T20:11:20.061Z,96.40
2019-01-28T20:13:50.504Z,95.60
2019-01-28T20:16:21.009Z,96.20
2019-01-28T20:18:51.776Z,97.00
2019-01-28T20:21:23.953Z,98.40
2019-01-28T20:23:54.674Z,98.60
2019-01-28T20:26:25.113Z,99.20
2019-01-28T20:28:55.606Z,99.40
2019-01-28T20:31:26.049Z,99.40
2019-01-28T20:33:57.636Z,98.40
2019-01-28T20:36:28.159Z,98.10
2019-01-28T20:38:58.629Z,98.70
2019-01-28T20:41:29.091Z,99.30
2019-01-28T20:43:59.521Z,99.90
2019-01-28T20:46:29.980Z,99.90
2019-01-28T20:49:00.425Z,99.90
2019-01-28T20:51:32.542Z,99.90
2019-01-28T20:54:03.151Z,99.90
2019-01-28T20:56:33.644Z,99.90
2019-01-28T20:59:04.171Z,99.90
2019-01-28T21:01:34.682Z,99.90
2019-01-28T21:04:05.206Z,99.90
2019-01-28T21:06:35.690Z,99.90
2019-01-28T21:09:08.929Z,99.90
2019-01-28T21:11:39.512Z,99.90
2019-01-28T21:14:09.910Z,99.90
2019-01-28T21:16:40.369Z,99.90
2019-01-28T21:19:10.822Z,99.90
2019-01-28T21:21:41.938Z,99.90
2019-01-28T21:24:12.699Z,99.90
2019-01-28T21:26:43.143Z,99.90
2019-01-28T21:29:13.556Z,99.90
2019-01-28T21:31:44.005Z,99.90
2019-01-28T21:34:14.422Z,99.90
2019-01-28T21:36:50.004Z,99.90
2019-01-28T21:39:20.455Z,99.90
2019-01-28T21:41:50.894Z,99.60
2019-01-28T21:44:21.308Z,99.90
2019-01-28T21:46:51.748Z,99.90
2019-01-28T21:49:22.167Z,99.90
2019-01-28T21:51:52.603Z,99.90
2019-01-28T21:54:23.073Z,99.90
2019-01-28T21:56:53.545Z,99.90
2019-01-28T21:59:23.906Z,99.90
2019-01-28T22:01:54.376Z,99.90
2019-01-28T22:04:25.748Z,99.90
2019-01-28T22:06:56.211Z,99.90
2019-01-28T22:09:26.652Z,99.90
2019-01-28T22:11:57.081Z,99.90
2019-01-28T22:14:27.533Z,99.90
2019-01-28T22:16:58.057Z,99.90
2019-01-28T22:19:28.555Z,99.90
2019-01-28T22:21:59.553Z,99.90
2019-01-28T22:24:30.003Z,99.90
2019-01-28T22:27:00.484Z,99.90
2019-01-28T22:29:32.308Z,99.90
2019-01-28T22:32:02.726Z,99.90
2019-01-28T22:34:33.177Z,99.90
2019-01-28T22:37:03.665Z,99.90
2019-01-28T22:39:34.063Z,99.90
2019-01-28T22:42:04.488Z,99.90
2019-01-28T22:44:34.980Z,99.90
2019-01-28T22:47:05.383Z,99.90
2019-01-28T22:49:35.852Z,99.90
2019-01-28T22:52:07.918Z,99.90
2019-01-28T22:54:38.426Z,99.90
2019-01-28T22:57:08.852Z,99.90
2019-01-28T22:59:39.336Z,99.90
2019-01-28T23:02:09.745Z,99.90
2019-01-28T23:04:40.148Z,99.90
2019-01-28T23:07:10.592Z,99.90
2019-01-28T23:09:41.079Z,99.90
2019-01-28T23:12:11.566Z,99.90
2019-01-28T23:14:41.970Z,99.90
2019-01-28T23:17:12.840Z,99.90
2019-01-28T23:19:43.305Z,99.90
2019-01-28T23:22:16.374Z,99.90
2019-01-28T23:24:47.161Z,99.90
2019-01-28T23:27:17.598Z,99.90
2019-01-28T23:29:48.082Z,99.90
2019-01-28T23:32:18.517Z,99.90
2019-01-28T23:34:48.945Z,99.90
2019-01-28T23:37:19.389Z,99.90
2019-01-28T23:39:49.864Z,99.90
2019-01-28T23:42:20.264Z,99.90
2019-01-28T23:44:50.696Z,99.90
2019-01-28T23:47:21.124Z,99.90
2019-01-28T23:49:51.525Z,99.90
2019-01-28T23:52:24.904Z,99.90
2019-01-28T23:54:54.089Z,99.90
2019-01-28T23:57:24.535Z,99.90
2019-01-28T23:59:54.963Z,99.90
